createdAt,value
2023-04-15T00:01:27.627Z,95804.09
2023-04-15T00:06:19.869Z,95803.13
2023-04-15T00:11:16.333Z,95802.97
2023-04-15T00:16:09.598Z,95789.03
2023-04-15T00:26:14.670Z,95792.47
2023-04-15T00:31:06.662Z,95799.28
2023-04-15T00:35:58.827Z,95792.72
2023-04-15T00:40:50.724Z,95797.69
2023-04-15T00:45:43.305Z,95805.50
2023-04-15T00:50:35.062Z,95808.31
2023-04-15T00:55:26.761Z,95803.13
2023-04-15T01:00:23.833Z,95804.50
2023-04-15T01:05:20.201Z,95802.72
2023-04-15T01:15:19.889Z,95812.53
2023-04-15T01:20:12.128Z,95814.53
2023-04-15T01:25:13.183Z,95807.94
2023-04-15T01:30:06.320Z,95804.19
2023-04-15T01:34:58.002Z,95807.56
2023-04-15T01:39:49.787Z,95807.19
2023-04-15T01:44:41.783Z,95807.38
2023-04-15T01:49:33.533Z,95803.41
2023-04-15T01:54:25.539Z,95814.75
2023-04-15T01:59:17.771Z,95807.59
2023-04-15T02:04:16.297Z,95806.22
2023-04-15T02:09:08.280Z,95817.53
2023-04-15T02:13:59.943Z,95821.53
2023-04-15T02:18:52.119Z,95822.31
2023-04-15T02:23:43.977Z,95819.34
2023-04-15T02:28:35.798Z,95827.50
2023-04-15T02:33:27.519Z,95829.13
2023-04-15T02:38:19.188Z,95821.94
2023-04-15T02:43:10.869Z,95819.13
2023-04-15T02:48:06.049Z,95813.56
2023-04-15T02:52:57.911Z,95809.19
2023-04-15T02:57:49.622Z,95816.38
2023-04-15T03:02:42.271Z,95814.75
2023-04-15T03:07:34.130Z,95821.13
2023-04-15T03:12:25.864Z,95820.72
2023-04-15T03:17:17.980Z,95827.69
2023-04-15T03:22:09.634Z,95825.50
2023-04-15T03:27:01.879Z,95826.44
2023-04-15T03:31:53.839Z,95822.09
2023-04-15T03:36:46.331Z,95822.50
2023-04-15T03:41:37.991Z,95816.34
2023-04-15T03:46:29.702Z,95809.16
2023-04-15T03:51:21.504Z,95807.75
2023-04-15T03:56:13.223Z,95810.31
2023-04-15T04:01:05.145Z,95811.50
2023-04-15T04:05:56.880Z,95811.50
2023-04-15T04:10:48.558Z,95806.53
2023-04-15T04:15:40.679Z,95809.34
2023-04-15T04:20:32.533Z,95816.47
2023-04-15T04:25:24.695Z,95825.38
2023-04-15T04:30:17.361Z,95826.56
2023-04-15T04:35:09.335Z,95826.41
2023-04-15T04:40:01.846Z,95825.63
2023-04-15T04:44:53.524Z,95820.25
2023-04-15T04:49:45.208Z,95815.13
2023-04-15T04:54:37.619Z,95815.34
2023-04-15T04:59:29.291Z,95815.38
2023-04-15T05:04:20.947Z,95812.72
2023-04-15T05:09:12.677Z,95829.19
2023-04-15T05:14:04.355Z,95830.97
2023-04-15T05:18:56.080Z,95839.47
2023-04-15T05:23:47.789Z,95840.72
2023-04-15T05:28:39.458Z,95854.88
2023-04-15T05:33:31.224Z,95852.09
2023-04-15T05:38:23.544Z,95859.28
2023-04-15T05:43:15.565Z,95865.09
2023-04-15T05:48:07.294Z,95860.06
2023-04-15T05:52:59.095Z,95858.91
2023-04-15T05:57:51.118Z,95859.72
2023-04-15T06:02:43.359Z,95857.47
2023-04-15T06:07:36.722Z,95852.84
2023-04-15T06:12:28.651Z,95862.56
2023-04-15T06:17:21.442Z,95858.69
2023-04-15T06:22:13.247Z,95864.03
2023-04-15T06:27:05.008Z,95854.53
2023-04-15T06:31:56.826Z,95858.56
2023-04-15T06:36:48.551Z,95854.66
2023-04-15T06:41:40.614Z,95853.56
2023-04-15T06:46:32.585Z,95860.31
2023-04-15T06:51:26.560Z,95858.44
2023-04-15T06:56:18.482Z,95867.38
2023-04-15T07:01:10.686Z,95866.28
2023-04-15T07:06:06.241Z,95860.69
2023-04-15T07:10:57.931Z,95861.22
2023-04-15T07:15:49.612Z,95858.44
2023-04-15T07:20:41.414Z,95861.09
2023-04-15T07:25:33.108Z,95851.53
2023-04-15T07:30:24.839Z,95848.75
2023-04-15T07:40:22.350Z,95850.34
2023-04-15T07:45:14.319Z,95852.00
2023-04-15T07:50:07.324Z,95852.34
2023-04-15T07:55:02.729Z,95855.19
2023-04-15T07:59:54.401Z,95847.47
2023-04-15T08:04:46.721Z,95854.16
2023-04-15T08:09:38.554Z,95853.38
2023-04-15T08:14:30.296Z,95857.06
2023-04-15T08:19:22.859Z,95860.69
2023-04-15T08:24:14.545Z,95852.47
2023-04-15T08:29:06.231Z,95853.16
2023-04-15T08:33:58.197Z,95853.16
2023-04-15T08:38:49.871Z,95853.00
2023-04-15T08:44:01.930Z,95853.75
2023-04-15T08:48:58.204Z,95851.03
2023-04-15T08:53:50.785Z,95858.78
2023-04-15T08:58:45.370Z,95854.78
2023-04-15T09:03:37.661Z,95849.25
2023-04-15T09:13:35.201Z,95848.97
2023-04-15T09:18:32.556Z,95845.09
2023-04-15T09:23:24.362Z,95863.53
2023-04-15T09:28:28.294Z,95858.84
2023-04-15T09:33:19.981Z,95855.69
2023-04-15T09:38:12.630Z,95859.53
2023-04-15T09:43:06.183Z,95864.31
2023-04-15T09:47:59.770Z,95852.94
2023-04-15T09:52:51.456Z,95860.34
2023-04-15T09:57:44.549Z,95857.72
2023-04-15T10:02:37.179Z,95857.97
2023-04-15T10:07:30.652Z,95860.59
2023-04-15T10:12:23.399Z,95855.03
2023-04-15T10:17:18.641Z,95865.34
2023-04-15T10:22:11.391Z,95865.00
2023-04-15T10:27:05.637Z,95865.06
2023-04-15T10:31:59.703Z,95864.03
2023-04-15T10:36:51.903Z,95864.56
2023-04-15T10:41:43.606Z,95867.44
2023-04-15T10:46:45.929Z,95858.75
2023-04-15T10:52:03.185Z,95859.53
2023-04-15T10:57:01.646Z,95879.31
2023-04-15T11:02:01.564Z,95866.94
2023-04-15T11:07:06.573Z,95872.44
2023-04-15T11:12:09.653Z,95874.84
2023-04-15T11:17:01.828Z,95876.38
2023-04-15T11:21:54.426Z,95877.38
2023-04-15T11:26:46.087Z,95880.75
2023-04-15T11:31:37.808Z,95885.03
2023-04-15T11:36:31.833Z,95877.91
2023-04-15T11:41:31.545Z,95881.00
2023-04-15T11:51:38.983Z,95900.91
2023-04-15T11:56:31.880Z,95894.03
2023-04-15T12:01:47.185Z,95903.97
2023-04-15T12:06:39.101Z,95913.38
2023-04-15T12:11:44.385Z,95915.19
2023-04-15T12:16:47.778Z,95927.13
2023-04-15T12:21:45.927Z,95924.53
2023-04-15T12:26:53.522Z,95928.22
2023-04-15T12:32:05.546Z,95936.66
2023-04-15T12:36:59.053Z,95937.22
2023-04-15T12:41:51.204Z,95945.41
2023-04-15T12:46:42.931Z,95956.25
2023-04-15T12:51:35.411Z,95961.50
2023-04-15T12:56:27.167Z,95964.63
2023-04-15T13:01:19.124Z,95972.53
2023-04-15T13:06:11.114Z,95976.72
2023-04-15T13:11:03.636Z,95975.44
2023-04-15T13:15:55.382Z,95988.91
2023-04-15T13:20:47.135Z,95994.44
2023-04-15T13:25:38.802Z,95983.34
2023-04-15T13:30:31.413Z,95996.78
2023-04-15T13:35:23.124Z,95993.00
2023-04-15T13:40:14.879Z,95992.66
2023-04-15T13:45:07.593Z,96001.00
2023-04-15T13:49:59.403Z,95998.22
2023-04-15T13:55:18.585Z,96002.25
2023-04-15T14:00:04.618Z,96009.88
2023-04-15T14:04:56.345Z,96003.41
2023-04-15T14:09:48.358Z,96018.66
2023-04-15T14:14:40.428Z,96018.59
2023-04-15T14:19:33.160Z,96023.88
2023-04-15T14:24:25.630Z,96028.84
2023-04-15T14:29:17.323Z,96037.13
2023-04-15T14:34:09.094Z,96044.81
2023-04-15T14:39:00.799Z,96056.75
2023-04-15T14:43:55.743Z,96055.44
2023-04-15T14:48:47.579Z,96066.53
2023-04-15T14:53:39.272Z,96072.34
2023-04-15T14:58:31.134Z,96082.38
2023-04-15T15:03:23.960Z,96093.44
2023-04-15T15:08:15.975Z,96088.69
2023-04-15T15:23:24.420Z,96124.22
2023-04-15T15:28:16.102Z,96127.84
2023-04-15T15:33:08.662Z,96135.56
2023-04-15T15:38:01.383Z,96138.97
2023-04-15T15:42:53.281Z,96137.13
2023-04-15T15:47:45.784Z,96136.31
2023-04-15T15:52:37.764Z,96146.53
2023-04-15T15:57:30.021Z,96160.06
2023-04-15T16:07:27.629Z,96172.00
2023-04-15T16:12:19.651Z,96174.31
2023-04-15T16:17:12.262Z,96177.41
2023-04-15T16:22:04.136Z,96186.03
2023-04-15T16:26:58.437Z,96188.72
2023-04-15T16:31:50.351Z,96196.47
2023-04-15T16:36:42.231Z,96209.25
2023-04-15T16:41:36.831Z,96222.38
2023-04-15T16:46:30.392Z,96240.38
2023-04-15T17:01:35.482Z,96302.47
2023-04-15T17:11:38.305Z,96303.41
2023-04-15T17:16:30.415Z,96310.09
2023-04-15T17:21:22.939Z,96319.91
2023-04-15T17:26:14.604Z,96332.59
2023-04-15T17:31:07.771Z,96351.59
2023-04-15T17:36:04.583Z,96358.44
2023-04-15T17:40:56.494Z,96358.59
2023-04-15T17:50:53.971Z,96375.72
2023-04-15T17:55:46.786Z,96387.56
2023-04-15T18:00:38.477Z,96404.44
2023-04-15T18:05:30.669Z,96410.25
2023-04-15T18:10:22.711Z,96421.03
2023-04-15T18:15:14.530Z,96425.16
2023-04-15T18:20:07.712Z,96430.88
2023-04-15T18:30:11.571Z,96442.03
2023-04-15T18:35:14.979Z,96459.25
2023-04-15T18:40:08.860Z,96461.13
2023-04-15T18:45:01.843Z,96469.44
2023-04-15T18:49:53.882Z,96469.22
2023-04-15T18:54:45.733Z,96481.25
2023-04-15T18:59:38.118Z,96497.88
2023-04-15T19:04:32.261Z,96507.09
2023-04-15T19:09:33.190Z,96523.69
2023-04-15T19:14:25.297Z,96533.50
2023-04-15T19:19:25.331Z,96532.69
2023-04-15T19:29:28.888Z,96554.63
2023-04-15T19:34:29.265Z,96565.03
2023-04-15T19:44:27.094Z,96571.69
2023-04-15T19:49:21.283Z,96561.34
2023-04-15T19:54:13.009Z,96565.63
2023-04-15T20:04:11.824Z,96583.81
2023-04-15T20:09:05.282Z,96575.09
2023-04-15T20:19:10.187Z,96577.47
2023-04-15T20:24:03.181Z,96575.81
2023-04-15T20:28:55.315Z,96575.09
2023-04-15T20:33:47.041Z,96574.34
2023-04-15T20:38:40.832Z,96566.63
2023-04-15T20:43:32.734Z,96568.09
2023-04-15T20:48:25.062Z,96554.28
2023-04-15T20:53:18.392Z,96560.66
2023-04-15T21:03:17.433Z,96563.94
2023-04-15T21:13:17.988Z,96582.50
2023-04-15T21:18:11.666Z,96590.75
2023-04-15T21:23:04.068Z,96605.66
2023-04-15T21:33:01.994Z,96597.59
2023-04-15T21:37:57.069Z,96599.88
2023-04-15T21:42:49.408Z,96609.84
2023-04-15T21:47:56.738Z,96607.00
2023-04-15T21:57:59.149Z,96615.75
2023-04-15T22:08:02.908Z,96613.66
2023-04-15T22:18:06.689Z,96612.75
2023-04-15T22:33:15.600Z,96610.72
2023-04-15T23:08:46.243Z,96657.25
2023-04-15T23:34:10.646Z,96676.81
2023-04-15T23:59:35.399Z,96680.06
